Airport ID:KGOO
Update Time (UTC):27/05/2022 05:23
Wind Speed (Knots):0
Wind Direction (Magnetic):40
Temperature (°C):18
Dew Point (°C):4
Humidity (%):42
Altimeter (inHg):29.98
Density Altitude (Feet):4300
Visibility:10+
Clouds (Hundreds of feet):CLR
Present Weather:
METAR:METAR KGOO 270520Z AUTO 00000KT 10SM CLR 18/04 A2998 RMK A01

The data displayed is for advisory purposes only and is not to be used for flight planning or operations.